Portada
METAR-TAF:

METAR-TAF

Aeropuertos :

Angulema, Francia

latitud: 45-43-46N, longitud: 00-13-08E, altitud: 132 m

Observación

El informe se hizo hace 11 minutos, a las 07:00 UTC
Viento 6 kt del norte
Temperatura 13°C
Humedad 88%
Presión 1020 hPa
Visibilidad 10 km o más
Escasas nubes a una altura de 700 ft

METAR: LFBU 250700Z AUTO 35006KT 9999 FEW007 13/11 Q1020 TEMPO BKN008

Hora: 09:11 (07:11 UTC)

Pronóstico

El informe se hizo hace 2 horas y 11 minutos, a las 05:00 UTC
Pronóstico válido del 25 a las 06 UTC al 26 a las 06 UTC
Viento 5 kt del norte-noroeste
Visibilidad 10 km o más
sin nubes por debajo de 1500 m y sin presencia de cumulonimbus.
Probabilidad 30% :
Temporalmente
del 25 a las 06 UTC al 25 a las 08 UTC
Cielo nuboso a una altura de 800 ft
Temporalmente
del 25 a las 10 UTC al 25 a las 16 UTC
Cielo nuboso a una altura de 3000 ft

TAF: LFBU 250500Z 2506/2606 34005KT CAVOK PROB30 TEMPO 2506/2508 BKN008 TEMPO 2510/2516 BKN030

Observaciones y pronósticos meteorológicos de más de 4000 aeropuertos (mensajes METAR y TAF).

Los puntos amarillos y rojos representan las estaciones disponibles.

Ponga el ratón en el punto deseado para ver el nombre de la estación.

Haga clic para ver las observaciones y los pronósticos meteorológicos.

Para cambiar el mapa : haga clic en los botones verdes con una cruz de color negro para hacer un zoom, en el botón verde con un guión para alejar o en las flechas verdes para mapas adyacentes.


METAR-TAF: